Time;durP1;ratioP1;P1;durP2;ratioP2;P2;SDS_P1;SDS_P2;PMS_P1;PMS_P2;Temp;Humidity;BMP_temperature;BMP_pressure;BME280_temperature;BME280_humidity;BME280_pressure;Samples;Min_cycle;Max_cycle;Signal;HPM_P1;HPM_P2
2024/04/11 00:00:15;;;;;;;3.50;1.85;;;;;;;4.88;100.00;94345.00;2082827;28;20121;-85
2024/04/11 00:01:16;;;;;;;4.43;1.45;;;;;;;4.67;100.00;94346.09;2097744;28;20024;-85
2024/04/11 00:02:17;;;;;;;3.58;1.50;;;;;;;4.77;100.00;94347.44;2110713;28;20046;-83
2024/04/11 00:03:18;;;;;;;5.47;1.50;;;;;;;4.82;100.00;94346.38;2101391;28;20031;-84
2024/04/11 00:04:19;;;;;;;3.17;1.30;;;;;;;4.92;100.00;94345.84;2106686;28;20024;-81
2024/04/11 00:05:20;;;;;;;2.17;1.23;;;;;;;4.65;100.00;94345.66;2090512;28;20952;-82
2024/04/11 00:06:21;;;;;;;6.10;1.40;;;;;;;4.70;100.00;94347.31;2092895;28;20417;-83
2024/04/11 00:07:22;;;;;;;4.85;1.38;;;;;;;4.74;100.00;94345.47;2114920;28;20027;-85
2024/04/11 00:08:24;;;;;;;5.53;1.70;;;;;;;4.66;100.00;94349.09;2102154;28;20028;-79
2024/04/11 00:09:25;;;;;;;4.85;1.52;;;;;;;4.61;100.00;94338.78;2111364;28;20096;-81
2024/04/11 00:10:26;;;;;;;6.72;1.50;;;;;;;4.53;100.00;94338.63;2100366;28;20036;-84
2024/04/11 00:11:27;;;;;;;2.17;1.25;;;;;;;4.41;100.00;94338.00;2091659;28;20037;-82
2024/04/11 00:12:28;;;;;;;4.53;1.65;;;;;;;4.39;100.00;94341.00;2105046;28;20381;-85
2024/04/11 00:13:29;;;;;;;3.70;1.55;;;;;;;4.42;100.00;94340.28;2105879;28;20035;-85
2024/04/11 00:14:44;;;;;;;3.50;1.55;;;;;;;4.49;100.00;94334.38;2101223;28;20115;-83
2024/04/11 00:15:46;;;;;;;4.43;1.80;;;;;;;4.38;100.00;94336.03;2091755;28;20489;-84
2024/04/11 00:16:49;;;;;;;4.47;1.40;;;;;;;4.55;100.00;94331.09;2093775;28;20032;-82
2024/04/11 00:17:50;;;;;;;3.80;1.30;;;;;;;4.28;100.00;94330.16;2097995;28;20028;-83
2024/04/11 00:18:51;;;;;;;4.15;1.40;;;;;;;4.45;100.00;94320.31;2080470;28;20076;-80
2024/04/11 00:19:51;;;;;;;3.35;1.50;;;;;;;4.49;100.00;94321.91;2092225;28;20025;-81
2024/04/11 00:20:55;;;;;;;6.60;1.50;;;;;;;4.59;100.00;94319.81;2106377;28;20722;-84
2024/04/11 00:21:56;;;;;;;4.05;1.55;;;;;;;4.59;100.00;94319.81;2105955;28;20052;-82
2024/04/11 00:22:57;;;;;;;4.28;1.85;;;;;;;4.67;100.00;94318.84;2091185;28;20032;-80
2024/04/11 00:23:58;;;;;;;5.00;1.58;;;;;;;4.50;100.00;94315.50;2105737;28;20027;-79
2024/04/11 00:24:59;;;;;;;2.08;1.50;;;;;;;4.36;100.00;94325.78;2115282;27;20032;-86
2024/04/11 00:26:00;;;;;;;4.47;1.70;;;;;;;4.46;100.00;94317.31;2101235;28;20028;-82
2024/04/11 00:27:02;;;;;;;3.30;1.45;;;;;;;4.44;100.00;94316.91;2099904;28;20032;-80
2024/04/11 00:28:03;;;;;;;2.05;1.40;;;;;;;4.45;100.00;94315.78;2106235;28;20020;-85
2024/04/11 00:29:08;;;;;;;4.32;1.83;;;;;;;4.45;100.00;94307.84;2097501;28;20028;-85
2024/04/11 00:30:09;;;;;;;1.88;1.45;;;;;;;4.48;100.00;94304.50;2103419;28;20035;-84
2024/04/11 00:31:10;;;;;;;3.75;1.90;;;;;;;4.27;100.00;94304.06;2106278;28;20032;-81
2024/04/11 00:32:11;;;;;;;5.60;1.58;;;;;;;4.41;100.00;94307.00;2090653;28;20035;-80
2024/04/11 00:33:12;;;;;;;4.25;1.92;;;;;;;4.30;100.00;94303.34;2104290;28;20047;-85
2024/04/11 00:34:15;;;;;;;4.70;1.40;;;;;;;4.36;100.00;94301.22;2113118;28;20035;-82
2024/04/11 00:35:20;;;;;;;5.15;1.50;;;;;;;4.28;100.00;94306.34;2102329;28;20016;-84
2024/04/11 00:36:24;;;;;;;3.67;1.88;;;;;;;4.33;100.00;94300.00;2105496;28;20032;-83
2024/04/11 00:37:26;;;;;;;5.50;2.00;;;;;;;4.44;100.00;94308.94;2109822;28;20054;-82
2024/04/11 00:38:33;;;;;;;3.40;1.73;;;;;;;4.33;100.00;94307.19;2097965;28;20504;-80
2024/04/11 00:39:34;;;;;;;4.25;1.77;;;;;;;4.36;100.00;94309.16;2097649;28;20035;-84
2024/04/11 00:40:35;;;;;;;4.60;1.45;;;;;;;4.44;100.00;94306.31;2096688;28;20063;-80
2024/04/11 00:41:42;;;;;;;3.30;1.45;;;;;;;4.41;100.00;94314.16;2112290;28;20023;-85
2024/04/11 00:42:43;;;;;;;2.80;1.60;;;;;;;4.35;100.00;94297.81;2097866;28;20024;-81
2024/04/11 00:43:44;;;;;;;5.80;1.35;;;;;;;4.19;100.00;94295.19;2104615;28;20040;-81
2024/04/11 00:44:45;;;;;;;4.43;1.73;;;;;;;4.12;100.00;94286.31;2097538;28;20025;-81
2024/04/11 00:45:47;;;;;;;3.28;1.95;;;;;;;4.13;100.00;94275.41;2098461;28;20024;-81
2024/04/11 00:46:52;;;;;;;4.50;1.90;;;;;;;4.23;100.00;94285.44;2099219;28;20032;-81
2024/04/11 00:48:01;;;;;;;4.00;1.58;;;;;;;4.27;100.00;94282.88;2113813;28;20027;-82
2024/04/11 00:49:02;;;;;;;3.90;1.60;;;;;;;4.26;100.00;94289.28;2105871;28;20020;-83
2024/04/11 00:50:04;;;;;;;3.25;1.27;;;;;;;4.30;100.00;94284.81;2097263;28;20024;-82
2024/04/11 00:51:07;;;;;;;2.63;1.65;;;;;;;4.35;100.00;94297.03;2092059;28;20024;-82
2024/04/11 00:52:08;;;;;;;2.65;1.23;;;;;;;4.47;100.00;94296.88;2085286;28;20321;-83
2024/04/11 00:53:10;;;;;;;3.85;1.90;;;;;;;4.27;100.00;94296.88;2089494;28;20025;-84
2024/04/11 00:54:12;;;;;;;2.15;1.40;;;;;;;4.26;100.00;94291.94;2101529;28;20059;-81
2024/04/11 00:55:14;;;;;;;5.75;1.52;;;;;;;4.13;100.00;94285.22;2108771;28;20032;-83
2024/04/11 00:56:15;;;;;;;5.93;1.60;;;;;;;4.12;100.00;94279.16;2097675;28;20055;-81
2024/04/11 00:57:16;;;;;;;3.42;1.60;;;;;;;4.17;100.00;94283.41;2103648;28;20027;-82
2024/04/11 00:58:18;;;;;;;6.55;1.65;;;;;;;4.39;100.00;94288.06;2097129;28;20401;-84
2024/04/11 00:59:19;;;;;;;3.00;1.40;;;;;;;4.44;100.00;94281.72;2088549;28;20029;-81
2024/04/11 01:00:26;;;;;;;4.38;1.85;;;;;;;4.27;100.00;94290.81;2100199;28;20661;-85
2024/04/11 01:01:27;;;;;;;3.83;1.55;;;;;;;4.34;100.00;94304.19;2107382;28;20052;-85
2024/04/11 01:02:27;;;;;;;2.38;1.40;;;;;;;4.33;100.00;94294.72;2112686;28;20030;-83
2024/04/11 01:03:28;;;;;;;3.33;1.30;;;;;;;4.37;100.00;94290.25;2104053;28;20027;-84
2024/04/11 01:04:30;;;;;;;3.30;1.38;;;;;;;4.43;100.00;94288.09;2105980;28;20085;-85
2024/04/11 01:05:32;;;;;;;6.97;1.48;;;;;;;4.65;100.00;94276.81;2094741;28;20461;-84
2024/04/11 01:08:07;;;;;;;1.92;1.30;;;;;;;4.92;100.00;94283.03;2093711;28;20028;-82
2024/04/11 01:09:19;;;;;;;3.33;1.70;;;;;;;4.58;100.00;94284.66;2097243;28;20032;-83
2024/04/11 01:10:22;;;;;;;3.97;1.50;;;;;;;4.55;100.00;94287.97;2102898;28;20714;-81
2024/04/11 01:11:23;;;;;;;3.40;1.23;;;;;;;4.36;100.00;94295.91;2097637;28;20548;-81
2024/04/11 01:12:24;;;;;;;4.28;1.38;;;;;;;4.35;100.00;94297.81;2098639;28;20023;-82
2024/04/11 01:13:25;;;;;;;2.75;1.30;;;;;;;4.50;100.00;94293.56;2088782;28;20035;-81
2024/04/11 01:14:41;;;;;;;3.33;1.42;;;;;;;4.47;100.00;94279.13;2072913;28;20653;-81
2024/04/11 01:15:42;;;;;;;5.03;1.50;;;;;;;4.58;100.00;94279.34;2093540;28;20101;-84
2024/04/11 01:16:47;;;;;;;2.45;1.55;;;;;;;4.54;100.00;94281.16;2095638;28;20079;-84
2024/04/11 01:17:48;;;;;;;6.22;1.77;;;;;;;4.41;100.00;94285.81;2081709;28;20021;-80
2024/04/11 01:18:49;;;;;;;3.05;1.60;;;;;;;4.47;100.00;94294.25;2093059;28;20478;-83
2024/04/11 01:19:50;;;;;;;5.05;1.70;;;;;;;4.47;100.00;94300.28;2113989;28;20031;-85
2024/04/11 01:20:52;;;;;;;3.67;1.73;;;;;;;4.46;100.00;94305.94;2097456;28;20114;-82
2024/04/11 01:21:53;;;;;;;3.65;1.50;;;;;;;4.48;100.00;94304.50;2088849;28;20472;-82
2024/04/11 01:22:55;;;;;;;3.80;1.33;;;;;;;4.41;100.00;94306.22;2097498;28;20032;-82
2024/04/11 01:23:56;;;;;;;4.18;1.45;;;;;;;4.38;100.00;94296.31;2096989;28;20162;-83
2024/04/11 01:24:57;;;;;;;4.03;1.52;;;;;;;4.37;100.00;94287.63;2089049;28;20055;-84
2024/04/11 01:25:58;;;;;;;3.75;1.60;;;;;;;4.39;100.00;94293.34;2092628;28;20555;-86
2024/04/11 01:26:59;;;;;;;4.65;1.58;;;;;;;4.40;100.00;94291.47;2113345;27;20107;-83
2024/04/11 01:28:00;;;;;;;2.47;1.20;;;;;;;4.40;100.00;94302.06;2101055;28;20074;-84
2024/04/11 01:29:02;;;;;;;2.22;1.77;;;;;;;4.60;100.00;94300.94;2098706;28;20024;-84
2024/04/11 01:30:03;;;;;;;3.30;1.60;;;;;;;4.52;100.00;94308.00;2097238;28;20255;-82
2024/04/11 01:31:04;;;;;;;4.50;2.10;;;;;;;4.66;100.00;94307.50;2080669;28;20079;-84
2024/04/11 01:32:06;;;;;;;3.58;1.48;;;;;;;4.35;100.00;94310.28;2088849;28;20535;-83
2024/04/11 01:33:09;;;;;;;2.00;1.33;;;;;;;4.32;100.00;94306.41;2097496;28;20366;-84
2024/04/11 01:34:10;;;;;;;3.90;2.80;;;;;;;4.13;100.00;94291.28;2091514;28;20212;-81
2024/04/11 01:35:12;;;;;;;4.90;1.48;;;;;;;4.22;100.00;94294.50;2080731;28;20613;-80
2024/04/11 01:36:16;;;;;;;3.30;1.50;;;;;;;4.22;100.00;94289.22;2105251;27;20786;-81
2024/04/11 01:37:17;;;;;;;3.22;1.65;;;;;;;4.38;100.00;94291.78;2114378;28;20046;-82
2024/04/11 01:38:18;;;;;;;4.20;1.75;;;;;;;4.42;100.00;94295.28;2114989;27;20023;-81
2024/04/11 01:39:20;;;;;;;4.63;1.70;;;;;;;4.52;100.00;94293.97;2108029;28;20020;-83
2024/04/11 01:40:21;;;;;;;3.65;1.60;;;;;;;4.46;100.00;94298.00;2108891;28;20028;-80
2024/04/11 01:41:26;;;;;;;4.72;1.60;;;;;;;4.29;100.00;94299.16;2097221;28;20436;-81
2024/04/11 01:42:27;;;;;;;3.83;1.83;;;;;;;4.35;100.00;94295.16;2088459;28;20040;-83
2024/04/11 01:43:28;;;;;;;5.47;1.77;;;;;;;4.27;100.00;94296.13;2089409;28;20029;-83
2024/04/11 01:44:30;;;;;;;3.80;1.70;;;;;;;4.39;100.00;94293.34;2088674;28;20017;-82
2024/04/11 01:45:39;;;;;;;7.20;1.90;;;;;;;4.29;100.00;94297.28;2088262;28;20032;-82
2024/04/11 01:46:40;;;;;;;4.60;1.63;;;;;;;4.29;100.00;94294.63;2089084;28;20025;-81
2024/04/11 01:47:42;;;;;;;5.30;1.55;;;;;;;4.05;100.00;94289.59;2080370;28;20040;-81
2024/04/11 01:48:42;;;;;;;2.03;1.42;;;;;;;3.96;100.00;94286.38;2103949;28;20384;-82
2024/04/11 01:49:44;;;;;;;2.05;1.30;;;;;;;3.95;100.00;94285.59;2096586;28;20120;-81
2024/04/11 01:50:46;;;;;;;5.03;1.60;;;;;;;3.92;100.00;94283.66;2090853;28;20028;-82
2024/04/11 01:51:48;;;;;;;4.15;1.35;;;;;;;4.14;100.00;94274.28;2089024;28;20020;-84
2024/04/11 01:52:49;;;;;;;5.95;1.77;;;;;;;4.16;100.00;94274.69;2102449;28;20032;-80
2024/04/11 01:53:50;;;;;;;4.55;1.90;;;;;;;4.15;100.00;94277.69;2113656;28;20468;-85
2024/04/11 01:54:51;;;;;;;5.22;1.80;;;;;;;4.30;100.00;94282.16;2097252;28;20070;-81
2024/04/11 01:55:53;;;;;;;4.30;1.80;;;;;;;4.21;100.00;94277.06;2091855;28;20050;-83
2024/04/11 01:56:54;;;;;;;6.18;1.73;;;;;;;4.49;100.00;94276.13;2101643;28;20024;-82
2024/04/11 01:57:55;;;;;;;4.63;1.77;;;;;;;4.26;100.00;94274.19;2098761;28;20481;-81
2024/04/11 01:58:56;;;;;;;4.07;1.40;;;;;;;4.41;100.00;94277.88;2091470;28;20127;-84
2024/04/11 01:59:56;;;;;;;3.55;1.67;;;;;;;4.27;100.00;94280.22;2089101;28;20517;-82
2024/04/11 02:01:09;;;;;;;2.70;1.50;;;;;;;4.30;100.00;94282.16;2096641;28;20028;-83
2024/04/11 02:02:10;;;;;;;5.72;1.60;;;;;;;4.33;100.00;94278.84;2097424;28;20032;-85
2024/04/11 02:03:13;;;;;;;4.55;1.45;;;;;;;4.26;100.00;94281.34;2088431;28;20528;-84
2024/04/11 02:04:14;;;;;;;3.03;1.58;;;;;;;4.21;100.00;94276.31;2097463;28;20082;-86
2024/04/11 02:05:16;;;;;;;2.83;1.50;;;;;;;3.98;100.00;94278.84;2109422;28;20024;-83
2024/04/11 02:06:18;;;;;;;7.43;2.28;;;;;;;3.98;100.00;94276.19;2087595;28;20036;-83
2024/04/11 02:07:19;;;;;;;4.88;2.05;;;;;;;3.99;100.00;94278.50;2087886;28;20029;-85
2024/04/11 02:08:20;;;;;;;8.23;2.35;;;;;;;3.87;100.00;94277.84;2100767;28;20035;-82
2024/04/11 02:09:23;;;;;;;3.70;1.48;;;;;;;3.91;100.00;94278.72;2100728;28;20422;-82
2024/04/11 02:10:24;;;;;;;2.78;1.63;;;;;;;3.98;100.00;94284.13;2097222;28;20024;-82
2024/04/11 02:11:25;;;;;;;4.10;2.00;;;;;;;4.13;100.00;94278.06;2100794;28;20016;-82
2024/04/11 02:12:26;;;;;;;4.40;1.75;;;;;;;4.26;100.00;94282.13;2094625;28;20070;-85
2024/04/11 02:13:27;;;;;;;3.20;1.67;;;;;;;4.30;100.00;94292.75;2091119;28;20033;-84
2024/04/11 02:14:32;;;;;;;4.50;1.95;;;;;;;4.19;100.00;94289.91;2092464;28;20037;-82
2024/04/11 02:15:35;;;;;;;6.38;1.80;;;;;;;4.32;100.00;94293.19;2112068;28;20024;-79
2024/04/11 02:16:36;;;;;;;6.18;1.65;;;;;;;4.41;100.00;94290.34;2107108;28;20447;-81
2024/04/11 02:17:37;;;;;;;4.28;1.55;;;;;;;4.19;100.00;94289.13;2101962;28;20043;-82
2024/04/11 02:18:38;;;;;;;4.88;1.95;;;;;;;3.89;100.00;94284.31;2088753;28;20044;-82
2024/04/11 02:19:40;;;;;;;3.95;1.35;;;;;;;4.12;100.00;94283.69;2096574;28;20016;-84
2024/04/11 02:20:41;;;;;;;1.77;1.35;;;;;;;4.07;100.00;94281.31;2113120;28;20057;-82
2024/04/11 02:21:43;;;;;;;4.35;1.70;;;;;;;4.03;100.00;94281.22;2097095;28;20404;-85
2024/04/11 02:22:44;;;;;;;5.97;1.38;;;;;;;3.91;100.00;94284.00;2104236;28;20020;-84
2024/04/11 02:23:45;;;;;;;4.15;1.73;;;;;;;4.09;100.00;94287.78;2097432;28;20095;-81
2024/04/11 02:24:46;;;;;;;3.83;1.73;;;;;;;4.06;100.00;94295.66;2088377;28;20417;-85
2024/04/11 02:25:51;;;;;;;3.03;1.50;;;;;;;3.99;100.00;94294.38;2103462;28;20480;-84
2024/04/11 02:26:52;;;;;;;4.03;1.40;;;;;;;4.13;100.00;94287.88;2096933;28;20036;-83
2024/04/11 02:27:54;;;;;;;2.28;1.52;;;;;;;4.08;100.00;94294.19;2088345;28;20025;-84
2024/04/11 02:28:56;;;;;;;3.53;1.48;;;;;;;3.99;100.00;94283.78;2086676;28;20029;-83
2024/04/11 02:29:57;;;;;;;5.78;1.48;;;;;;;4.12;100.00;94286.31;2104828;28;20060;-85
2024/04/11 02:30:58;;;;;;;4.47;1.45;;;;;;;4.09;100.00;94287.78;2104473;28;20023;-82
2024/04/11 02:31:59;;;;;;;1.75;1.50;;;;;;;4.02;100.00;94288.41;2105317;28;20484;-85
2024/04/11 02:33:00;;;;;;;2.80;1.60;;;;;;;4.07;100.00;94287.34;2090935;28;20119;-82
2024/04/11 02:34:01;;;;;;;2.58;1.50;;;;;;;4.07;100.00;94279.41;2079973;28;20079;-81
2024/04/11 02:35:05;;;;;;;2.10;1.35;;;;;;;4.10;100.00;94281.38;2092840;28;20638;-84
2024/04/11 02:36:08;;;;;;;3.47;1.70;;;;;;;3.90;100.00;94279.78;2097920;28;20028;-81
2024/04/11 02:37:09;;;;;;;3.65;1.40;;;;;;;4.11;100.00;94284.78;2104695;28;20031;-83
2024/04/11 02:38:11;;;;;;;5.55;1.58;;;;;;;4.25;100.00;94288.50;2096654;28;20398;-83
2024/04/11 02:39:12;;;;;;;4.72;2.15;;;;;;;4.36;100.00;94291.38;2078645;28;20029;-84
2024/04/11 02:40:13;;;;;;;6.18;1.40;;;;;;;4.14;100.00;94284.13;2072423;28;20128;-83
2024/04/11 02:41:14;;;;;;;2.90;1.38;;;;;;;4.12;100.00;94286.31;2088027;28;20638;-82
2024/04/11 02:42:15;;;;;;;3.95;1.90;;;;;;;4.12;100.00;94287.09;2105529;28;20032;-82
2024/04/11 02:43:18;;;;;;;4.28;1.95;;;;;;;3.97;100.00;94286.03;2088979;28;20581;-84
2024/04/11 02:44:19;;;;;;;5.93;1.90;;;;;;;4.02;100.00;94280.47;2096909;28;20028;-82
2024/04/11 02:45:21;;;;;;;4.72;1.55;;;;;;;4.00;100.00;94281.94;2116788;28;20151;-81
2024/04/11 02:46:25;;;;;;;4.20;1.55;;;;;;;4.03;100.00;94279.34;2104816;28;20115;-81
2024/04/11 02:47:27;;;;;;;7.07;2.20;;;;;;;3.93;100.00;94285.16;2096824;28;20031;-82
2024/04/11 02:48:28;;;;;;;6.65;1.80;;;;;;;3.93;100.00;94287.06;2111100;28;20019;-84
2024/04/11 02:49:28;;;;;;;3.75;1.40;;;;;;;3.94;100.00;94288.56;2118790;28;20022;-83
2024/04/11 02:50:29;;;;;;;3.70;1.50;;;;;;;3.80;100.00;94283.75;2118502;28;20031;-81
2024/04/11 02:51:31;;;;;;;3.10;1.42;;;;;;;3.77;100.00;94289.72;2119865;28;20027;-82
2024/04/11 02:52:34;;;;;;;2.53;1.35;;;;;;;3.77;100.00;94287.06;2112019;28;20147;-80
2024/04/11 02:53:35;;;;;;;3.80;1.40;;;;;;;3.53;100.00;94295.97;2099679;28;20025;-82
2024/04/11 02:54:36;;;;;;;5.88;1.65;;;;;;;3.59;100.00;94293.81;2099915;28;20024;-83
2024/04/11 02:55:38;;;;;;;7.35;1.60;;;;;;;3.68;100.00;94305.75;2110566;28;20040;-85
2024/04/11 02:56:39;;;;;;;4.88;1.80;;;;;;;3.82;100.00;94297.41;2108111;28;20322;-84
2024/04/11 02:57:39;;;;;;;3.45;1.83;;;;;;;3.83;100.00;94296.28;2096775;28;20012;-81
2024/04/11 02:58:41;;;;;;;3.83;1.38;;;;;;;3.67;100.00;94306.88;2108311;28;20038;-80
2024/04/11 02:59:43;;;;;;;3.97;1.55;;;;;;;3.56;100.00;94302.41;2092865;28;20092;-83
2024/04/11 03:00:44;;;;;;;5.20;1.70;;;;;;;3.78;100.00;94305.25;2089041;28;20021;-82
2024/04/11 03:01:47;;;;;;;2.50;1.58;;;;;;;3.90;100.00;94306.25;2103413;28;20068;-81
2024/04/11 03:02:48;;;;;;;4.18;1.50;;;;;;;3.76;100.00;94307.44;2096480;28;20020;-84
2024/04/11 03:03:49;;;;;;;4.13;1.58;;;;;;;3.82;100.00;94307.97;2088834;28;20048;-83
2024/04/11 03:04:53;;;;;;;3.85;1.48;;;;;;;3.56;100.00;94310.34;2096442;28;20035;-84
2024/04/11 03:05:54;;;;;;;1.98;1.33;;;;;;;3.38;100.00;94309.91;2101983;28;20039;-80
2024/04/11 03:06:56;;;;;;;2.22;1.08;;;;;;;3.37;100.00;94314.44;2096745;28;20027;-85
2024/04/11 03:07:57;;;;;;;5.18;1.17;;;;;;;3.52;100.00;94311.06;2111299;28;20114;-82
2024/04/11 03:09:00;;;;;;;3.60;1.67;;;;;;;3.65;100.00;94313.63;2099484;28;20024;-83
2024/04/11 03:10:01;;;;;;;2.65;1.60;;;;;;;3.68;100.00;94313.69;2099156;28;20028;-82
2024/04/11 03:11:02;;;;;;;4.38;1.40;;;;;;;3.67;100.00;94311.38;2096702;28;20031;-83
2024/04/11 03:12:04;;;;;;;6.82;1.60;;;;;;;3.49;100.00;94317.00;2098702;28;20090;-84
2024/04/11 03:13:05;;;;;;;2.40;1.52;;;;;;;3.51;100.00;94308.72;2096616;28;20032;-84
2024/04/11 03:14:06;;;;;;;2.53;1.40;;;;;;;3.44;100.00;94325.19;2088634;28;20470;-82
2024/04/11 03:15:09;;;;;;;3.17;1.55;;;;;;;3.62;100.00;94330.16;2094466;28;20112;-82
2024/04/11 03:16:14;;;;;;;3.20;1.27;;;;;;;3.41;100.00;94325.09;2096517;28;20064;-83
2024/04/11 03:17:15;;;;;;;3.05;1.45;;;;;;;3.45;100.00;94326.72;2097438;28;20024;-80
2024/04/11 03:18:17;;;;;;;3.85;1.88;;;;;;;3.29;100.00;94320.66;2083552;28;20520;-83
2024/04/11 03:19:18;;;;;;;2.70;1.35;;;;;;;3.36;100.00;94320.84;2096667;28;20396;-83
2024/04/11 03:20:19;;;;;;;3.45;1.63;;;;;;;3.56;100.00;94324.38;2087714;28;20033;-83
2024/04/11 03:21:20;;;;;;;4.55;1.95;;;;;;;3.46;100.00;94322.22;2104588;28;20051;-83
2024/04/11 03:22:21;;;;;;;3.20;1.35;;;;;;;3.64;100.00;94333.22;2106318;28;20500;-81
2024/04/11 03:23:23;;;;;;;1.60;1.23;;;;;;;3.81;100.00;94329.47;2089663;28;20071;-80
2024/04/11 03:24:24;;;;;;;5.28;1.70;;;;;;;3.72;100.00;94334.91;2086328;28;20035;-83
2024/04/11 03:25:25;;;;;;;1.92;1.50;;;;;;;3.75;100.00;94328.97;2090261;28;20120;-83
2024/04/11 03:26:26;;;;;;;4.93;1.23;;;;;;;3.74;100.00;94325.56;2090773;28;20119;-84
2024/04/11 03:27:28;;;;;;;3.75;1.50;;;;;;;3.79;100.00;94325.28;2098188;28;20051;-85
2024/04/11 03:28:29;;;;;;;3.03;2.05;;;;;;;3.57;100.00;94336.47;2100425;28;20390;-82
2024/04/11 03:29:30;;;;;;;4.80;1.92;;;;;;;3.61;100.00;94336.56;2089353;28;20029;-84
2024/04/11 03:30:31;;;;;;;6.43;1.67;;;;;;;3.50;100.00;94339.69;2102804;28;20568;-81
2024/04/11 03:31:32;;;;;;;5.55;1.95;;;;;;;3.47;100.00;94343.03;2108990;28;20143;-84
2024/04/11 03:32:33;;;;;;;4.18;1.73;;;;;;;3.42;100.00;94342.50;2115044;28;20038;-81
2024/04/11 03:33:35;;;;;;;1.92;1.52;;;;;;;3.57;100.00;94341.75;2108170;28;20046;-82
2024/04/11 03:34:39;;;;;;;4.50;1.48;;;;;;;3.62;100.00;94343.38;2097880;28;20342;-82
2024/04/11 03:35:40;;;;;;;3.60;1.63;;;;;;;3.63;100.00;94342.25;2098617;28;20111;-83
2024/04/11 03:36:44;;;;;;;6.47;1.88;;;;;;;3.66;100.00;94337.06;2097487;28;20457;-84
2024/04/11 03:37:45;;;;;;;5.50;2.22;;;;;;;3.48;100.00;94338.50;2106242;28;20028;-83
2024/04/11 03:38:54;;;;;;;7.07;1.90;;;;;;;3.55;100.00;94336.03;2106912;28;20024;-81
2024/04/11 03:39:57;;;;;;;3.25;1.60;;;;;;;3.55;100.00;94330.72;2097750;28;20479;-80
2024/04/11 03:41:04;;;;;;;3.65;1.60;;;;;;;3.46;100.00;94328.25;2104732;28;20047;-82
2024/04/11 03:42:08;;;;;;;2.13;1.52;;;;;;;3.60;100.00;94325.22;2100433;28;20584;-80
2024/04/11 03:43:11;;;;;;;5.28;1.55;;;;;;;3.55;100.00;94336.03;2099645;28;20550;-82
2024/04/11 03:44:12;;;;;;;2.45;1.55;;;;;;;3.55;100.00;94336.03;2101803;28;20036;-81
2024/04/11 03:45:22;;;;;;;6.60;2.50;;;;;;;3.64;100.00;94333.97;2097803;28;20039;-82
2024/04/11 03:46:23;;;;;;;2.50;1.60;;;;;;;3.71;100.00;94336.81;2110419;28;20027;-81
2024/04/11 03:47:24;;;;;;;4.13;1.60;;;;;;;3.57;100.00;94335.69;2091765;28;20028;-83
2024/04/11 03:48:25;;;;;;;4.28;1.75;;;;;;;3.58;100.00;94339.88;2112123;28;20100;-82
2024/04/11 03:49:26;;;;;;;3.72;1.70;;;;;;;3.38;100.00;94329.22;2119670;27;20024;-82
2024/04/11 03:50:29;;;;;;;3.88;1.52;;;;;;;3.32;100.00;94341.13;2109001;28;20047;-82
2024/04/11 03:51:37;;;;;;;4.75;1.33;;;;;;;3.31;100.00;94329.03;2099151;28;20020;-84
2024/04/11 03:52:40;;;;;;;4.35;1.95;;;;;;;3.22;100.00;94331.06;2082875;28;20033;-81
2024/04/11 03:53:43;;;;;;;1.60;1.35;;;;;;;3.32;100.00;94327.91;2082755;28;20124;-81
2024/04/11 03:54:44;;;;;;;1.95;1.40;;;;;;;3.46;100.00;94325.63;2097135;28;20032;-85
2024/04/11 03:55:47;;;;;;;4.50;1.48;;;;;;;3.45;100.00;94324.09;2099431;28;20025;-84
2024/04/11 03:56:50;;;;;;;4.47;1.70;;;;;;;3.34;100.00;94327.59;2083931;28;20478;-82
2024/04/11 03:57:51;;;;;;;2.90;1.52;;;;;;;3.43;100.00;94323.66;2090194;28;20545;-84
2024/04/11 03:59:01;;;;;;;2.60;1.42;;;;;;;3.47;100.00;94321.88;2099894;28;20036;-83
2024/04/11 04:00:07;;;;;;;6.60;1.70;;;;;;;3.42;100.00;94319.47;2105946;28;20075;-81
2024/04/11 04:01:15;;;;;;;3.70;1.70;;;;;;;3.39;100.00;94330.75;2098198;28;20028;-82
2024/04/11 04:02:18;;;;;;;4.72;1.85;;;;;;;3.32;100.00;94324.50;2095030;28;20071;-81
2024/04/11 04:03:19;;;;;;;3.72;1.83;;;;;;;3.23;100.00;94319.38;2081978;28;20061;-79
2024/04/11 04:04:20;;;;;;;5.07;1.80;;;;;;;3.13;100.00;94325.16;2088865;28;20497;-81
2024/04/11 04:05:20;;;;;;;3.00;1.58;;;;;;;3.26;100.00;94322.13;2096541;28;20032;-83
2024/04/11 04:06:21;;;;;;;5.45;1.80;;;;;;;3.36;100.00;94322.72;2098095;28;20078;-84
2024/04/11 04:07:22;;;;;;;3.47;1.70;;;;;;;3.46;100.00;94322.97;2103250;28;20020;-80
2024/04/11 04:08:23;;;;;;;4.25;1.65;;;;;;;3.54;100.00;94329.97;2110721;27;20035;-84
2024/04/11 04:09:25;;;;;;;3.15;1.55;;;;;;;3.40;100.00;94323.56;2098452;28;20122;-81
2024/04/11 04:10:26;;;;;;;3.58;1.70;;;;;;;3.38;100.00;94336.34;2096096;28;20052;-84
2024/04/11 04:11:27;;;;;;;4.82;1.63;;;;;;;3.46;100.00;94333.53;2101705;28;20023;-83
2024/04/11 04:12:28;;;;;;;6.13;1.73;;;;;;;3.45;100.00;94339.19;2097627;28;20036;-85
2024/04/11 04:13:30;;;;;;;5.13;1.80;;;;;;;3.51;100.00;94335.97;2103266;28;20535;-82
2024/04/11 04:14:32;;;;;;;5.43;1.55;;;;;;;3.59;100.00;94338.75;2098152;28;20024;-83
2024/04/11 04:15:33;;;;;;;4.60;1.73;;;;;;;3.55;100.00;94336.03;2097194;28;20490;-83
2024/04/11 04:16:35;;;;;;;4.80;1.33;;;;;;;3.50;100.00;94337.03;2091200;28;20052;-82
2024/04/11 04:17:43;;;;;;;5.35;1.75;;;;;;;3.39;100.00;94341.31;2089095;28;20504;-84
2024/04/11 04:18:46;;;;;;;2.47;1.50;;;;;;;3.23;100.00;94346.56;2086746;28;20021;-84
2024/04/11 04:19:47;;;;;;;5.10;1.52;;;;;;;3.34;100.00;94340.81;2102628;28;20013;-85
2024/04/11 04:20:57;;;;;;;2.92;1.35;;;;;;;3.18;100.00;94341.53;2096995;28;20021;-81
2024/04/11 04:21:59;;;;;;;3.95;1.90;;;;;;;3.38;100.00;94334.50;2090879;28;20033;-81
2024/04/11 04:23:10;;;;;;;4.57;2.38;;;;;;;3.46;100.00;94338.06;2072979;28;20040;-81
2024/04/11 04:24:11;;;;;;;;;;;;;;;3.23;100.00;94333.34;2087699;28;20047;-80
2024/04/11 04:25:14;;;;;;;5.72;1.83;;;;;;;3.22;100.00;94331.06;2097864;28;20071;-81
2024/04/11 04:26:19;;;;;;;6.57;1.80;;;;;;;2.99;100.00;94333.50;2098219;28;20028;-81
2024/04/11 04:27:25;;;;;;;3.80;1.60;;;;;;;2.92;100.00;94336.69;2109514;28;20046;-84
2024/04/11 04:28:33;;;;;;;2.65;1.45;;;;;;;2.91;100.00;94335.16;2099648;28;20543;-83
2024/04/11 04:29:37;;;;;;;3.25;1.52;;;;;;;2.97;100.00;94336.44;2103312;28;20028;-84
2024/04/11 04:30:44;;;;;;;6.80;1.50;;;;;;;3.22;100.00;94338.97;2102586;28;20416;-83
2024/04/11 04:31:47;;;;;;;2.70;1.67;;;;;;;3.35;100.00;94335.16;2082908;28;20028;-84
2024/04/11 04:32:53;;;;;;;6.47;1.70;;;;;;;3.35;100.00;94334.41;2089305;28;20025;-84
2024/04/11 04:33:57;;;;;;;5.80;1.65;;;;;;;3.34;100.00;94346.09;2089437;28;20047;-81
2024/04/11 04:34:58;;;;;;;3.45;1.48;;;;;;;3.36;100.00;94336.69;2097505;28;20470;-82
2024/04/11 04:35:59;;;;;;;4.60;1.60;;;;;;;3.38;100.00;94333.72;2097049;28;20493;-81
2024/04/11 04:37:00;;;;;;;3.75;1.75;;;;;;;3.47;100.00;94344.91;2102103;28;20059;-82
2024/04/11 04:38:06;;;;;;;5.93;2.10;;;;;;;3.40;100.00;94345.50;2107239;28;20619;-83
2024/04/11 04:39:08;;;;;;;5.38;1.65;;;;;;;3.55;100.00;94341.31;2102716;28;20032;-83
2024/04/11 04:40:10;;;;;;;5.10;1.80;;;;;;;3.38;100.00;94339.78;2105982;28;20246;-82
2024/04/11 04:41:14;;;;;;;4.03;1.52;;;;;;;3.22;100.00;94349.56;2091440;28;20037;-83
2024/04/11 04:42:15;;;;;;;4.18;1.58;;;;;;;3.12;100.00;94342.13;2089625;28;20032;-81
2024/04/11 04:43:16;;;;;;;3.90;1.73;;;;;;;3.27;100.00;94342.13;2097284;28;20021;-82
2024/04/11 04:44:22;;;;;;;3.17;2.00;;;;;;;3.38;100.00;94341.63;2092525;28;20025;-81
2024/04/11 04:45:23;;;;;;;5.03;1.40;;;;;;;3.54;100.00;94342.44;2110250;28;20055;-81
2024/04/11 04:46:34;;;;;;;1.98;1.50;;;;;;;3.52;100.00;94344.66;2107837;28;20495;-82
2024/04/11 04:47:35;;;;;;;5.30;1.65;;;;;;;3.42;100.00;94348.53;2112767;27;20111;-80
2024/04/11 04:48:36;;;;;;;2.05;1.50;;;;;;;3.49;100.00;94345.31;2112506;28;20023;-81
2024/04/11 04:49:37;;;;;;;2.58;1.60;;;;;;;3.45;100.00;94345.22;2103572;28;20489;-82
2024/04/11 04:50:40;;;;;;;3.25;1.77;;;;;;;3.62;100.00;94346.78;2098301;28;20074;-84
2024/04/11 04:51:43;;;;;;;5.32;1.80;;;;;;;3.64;100.00;94344.56;2099850;28;20021;-81
2024/04/11 04:52:44;;;;;;;3.58;1.80;;;;;;;3.68;100.00;94349.94;2097639;28;20016;-81
2024/04/11 04:53:46;;;;;;;3.28;1.60;;;;;;;3.71;100.00;94351.91;2105551;28;20354;-83
2024/04/11 04:54:50;;;;;;;6.50;1.80;;;;;;;3.65;100.00;94359.31;2101060;28;20031;-80